createdAt,value
2023-04-27T00:00:28.427Z,5.53
2023-04-27T00:02:56.857Z,4.35
2023-04-27T00:05:25.436Z,4.15
2023-04-27T00:07:53.851Z,4.03
2023-04-27T00:10:22.305Z,4.30
2023-04-27T00:12:50.681Z,4.65
2023-04-27T00:15:18.961Z,4.15
2023-04-27T00:17:48.724Z,5.80
2023-04-27T00:20:17.075Z,3.88
2023-04-27T00:22:45.740Z,3.90
2023-04-27T00:25:13.856Z,4.15
2023-04-27T00:27:42.234Z,3.92
2023-04-27T00:30:11.482Z,4.00
2023-04-27T00:32:39.749Z,3.80
2023-04-27T00:35:10.660Z,4.63
2023-04-27T00:37:38.818Z,4.53
2023-04-27T00:40:08.654Z,4.03
2023-04-27T00:42:37.376Z,4.47
2023-04-27T00:45:06.314Z,4.78
2023-04-27T00:47:35.139Z,3.75
2023-04-27T00:50:04.109Z,4.65
2023-04-27T00:52:33.862Z,4.15
2023-04-27T00:55:05.191Z,4.55
2023-04-27T00:57:35.774Z,4.88
2023-04-27T01:00:07.334Z,4.82
2023-04-27T01:02:37.119Z,5.93
2023-04-27T01:05:08.836Z,4.60
2023-04-27T01:07:40.284Z,4.63
2023-04-27T01:10:09.635Z,4.72
2023-04-27T01:12:37.967Z,4.32
2023-04-27T01:15:08.024Z,4.70
2023-04-27T01:17:36.626Z,4.57
2023-04-27T01:20:07.995Z,4.93
2023-04-27T01:22:36.338Z,4.45
2023-04-27T01:25:06.732Z,4.75
2023-04-27T01:27:35.275Z,5.00
2023-04-27T01:30:03.722Z,5.05
2023-04-27T01:32:31.875Z,5.47
2023-04-27T01:35:00.155Z,4.47
2023-04-27T01:37:28.550Z,4.32
2023-04-27T01:39:56.672Z,4.78
2023-04-27T01:42:26.180Z,3.97
2023-04-27T01:44:55.016Z,4.32
2023-04-27T01:47:23.252Z,4.95
2023-04-27T01:49:51.835Z,5.20
2023-04-27T01:52:20.326Z,4.40
2023-04-27T01:54:48.582Z,4.65
2023-04-27T01:57:17.738Z,4.68
2023-04-27T01:59:47.425Z,5.30
2023-04-27T02:02:15.641Z,5.47
2023-04-27T02:04:45.521Z,5.60
2023-04-27T02:07:13.789Z,5.00
2023-04-27T02:09:42.000Z,4.50
2023-04-27T02:12:10.281Z,4.35
2023-04-27T02:14:38.911Z,4.00
2023-04-27T02:17:08.538Z,3.95
2023-04-27T02:19:36.790Z,4.75
2023-04-27T02:22:05.572Z,5.07
2023-04-27T02:24:33.869Z,4.07
2023-04-27T02:27:02.010Z,4.43
2023-04-27T02:29:32.203Z,5.05
2023-04-27T02:32:00.806Z,4.50
2023-04-27T02:34:30.465Z,5.07
2023-04-27T02:36:59.214Z,5.55
2023-04-27T02:39:27.513Z,4.85
2023-04-27T02:41:55.789Z,4.97
2023-04-27T02:44:24.216Z,5.18
2023-04-27T02:46:52.469Z,5.43
2023-04-27T02:49:21.064Z,5.57
2023-04-27T02:51:50.841Z,6.15
2023-04-27T02:54:19.071Z,6.50
2023-04-27T02:56:47.263Z,7.22
2023-04-27T02:59:15.914Z,8.10
2023-04-27T03:01:44.640Z,7.22
2023-04-27T03:04:14.223Z,6.38
2023-04-27T03:06:42.867Z,7.22
2023-04-27T03:09:12.880Z,7.07
2023-04-27T03:11:41.455Z,8.55
2023-04-27T03:14:09.730Z,7.90
2023-04-27T03:16:37.984Z,6.88
2023-04-27T03:19:06.362Z,6.78
2023-04-27T03:21:34.654Z,7.40
2023-04-27T03:24:02.960Z,7.00
2023-04-27T03:26:33.345Z,8.13
2023-04-27T03:29:01.794Z,7.72
2023-04-27T03:31:29.978Z,7.25
2023-04-27T03:33:58.190Z,8.05
2023-04-27T03:36:27.133Z,8.07
2023-04-27T03:38:55.334Z,8.23
2023-04-27T03:41:23.536Z,7.88
2023-04-27T03:43:53.664Z,7.80
2023-04-27T03:46:21.792Z,8.23
2023-04-27T03:48:50.220Z,7.88
2023-04-27T03:51:19.291Z,8.63
2023-04-27T03:53:47.524Z,8.85
2023-04-27T03:56:15.833Z,8.45
2023-04-27T03:58:44.008Z,8.38
2023-04-27T04:01:14.956Z,8.57
2023-04-27T04:03:43.357Z,9.02
2023-04-27T04:06:12.368Z,9.80
2023-04-27T04:08:41.101Z,9.63
2023-04-27T04:11:09.319Z,9.48
2023-04-27T04:13:38.173Z,9.55
2023-04-27T04:16:08.379Z,10.45
2023-04-27T04:18:38.601Z,8.98
2023-04-27T04:21:10.278Z,10.52
2023-04-27T04:23:41.291Z,10.75
2023-04-27T04:26:10.059Z,11.15
2023-04-27T04:28:38.727Z,11.05
2023-04-27T04:31:09.863Z,13.05
2023-04-27T04:33:39.584Z,11.75
2023-04-27T04:36:08.434Z,12.50
2023-04-27T04:38:36.688Z,12.52
2023-04-27T04:41:04.992Z,12.55
2023-04-27T04:43:33.533Z,13.57
2023-04-27T04:46:01.794Z,13.80
2023-04-27T04:48:30.443Z,13.18
2023-04-27T04:50:59.934Z,13.18
2023-04-27T04:53:28.208Z,13.55
2023-04-27T04:55:56.551Z,14.73
2023-04-27T04:58:24.942Z,14.30
2023-04-27T05:00:53.115Z,15.32
2023-04-27T05:03:21.727Z,12.88
2023-04-27T05:05:50.118Z,14.15
2023-04-27T05:08:19.770Z,14.77
2023-04-27T05:10:51.355Z,14.27
2023-04-27T05:15:47.694Z,12.57
2023-04-27T05:18:15.902Z,12.75
2023-04-27T05:20:44.249Z,12.85
2023-04-27T05:23:12.706Z,12.00
2023-04-27T05:25:43.972Z,12.07
2023-04-27T05:28:12.458Z,11.57
2023-04-27T05:30:40.715Z,11.43
2023-04-27T05:33:09.076Z,11.85
2023-04-27T05:35:37.472Z,12.40
2023-04-27T05:38:05.961Z,12.13
2023-04-27T05:40:34.546Z,13.13
2023-04-27T05:43:05.811Z,13.35
2023-04-27T05:45:34.518Z,14.98
2023-04-27T05:48:02.811Z,14.07
2023-04-27T05:50:31.087Z,14.45
2023-04-27T05:52:59.336Z,13.82
2023-04-27T05:55:27.496Z,14.82
2023-04-27T05:58:07.177Z,14.65
2023-04-27T06:00:39.051Z,15.35
2023-04-27T06:03:07.477Z,14.20
2023-04-27T06:05:36.030Z,12.82
2023-04-27T06:08:04.373Z,15.77
2023-04-27T06:10:32.567Z,14.38
2023-04-27T06:13:00.793Z,12.00
2023-04-27T06:15:29.456Z,10.35
2023-04-27T06:17:59.069Z,9.27
2023-04-27T06:20:27.315Z,9.27
2023-04-27T06:22:57.248Z,8.75
2023-04-27T06:25:27.468Z,9.13
2023-04-27T06:27:55.727Z,9.77
2023-04-27T06:30:24.255Z,9.32
2023-04-27T06:32:53.348Z,9.27
2023-04-27T06:35:23.534Z,7.65
2023-04-27T06:37:52.222Z,9.77
2023-04-27T06:40:20.840Z,9.50
2023-04-27T06:42:49.478Z,9.60
2023-04-27T06:45:18.026Z,8.98
2023-04-27T06:47:46.626Z,9.25
2023-04-27T06:50:16.552Z,9.10
2023-04-27T06:52:46.235Z,9.60
2023-04-27T06:55:14.674Z,9.00
2023-04-27T06:57:42.905Z,8.15
2023-04-27T07:00:13.450Z,8.57
2023-04-27T07:02:41.755Z,7.53
2023-04-27T07:05:10.307Z,8.65
2023-04-27T07:07:38.544Z,8.43
2023-04-27T07:10:10.583Z,8.30
2023-04-27T07:12:38.830Z,8.00
2023-04-27T07:15:08.416Z,9.18
2023-04-27T07:17:36.632Z,9.15
2023-04-27T07:20:06.419Z,7.93
2023-04-27T07:22:34.805Z,8.38
2023-04-27T07:25:04.426Z,9.18
2023-04-27T07:27:35.974Z,7.68
2023-04-27T07:32:32.697Z,9.30
2023-04-27T07:35:01.003Z,9.75
2023-04-27T07:37:29.141Z,9.65
2023-04-27T07:39:57.890Z,8.80
2023-04-27T07:42:26.349Z,9.18
2023-04-27T07:44:57.257Z,8.93
2023-04-27T07:47:25.497Z,8.93
2023-04-27T07:49:53.742Z,9.07
2023-04-27T07:52:21.919Z,9.02
2023-04-27T07:54:50.242Z,9.18
2023-04-27T07:57:18.756Z,11.45
2023-04-27T07:59:47.584Z,10.63
2023-04-27T08:02:20.070Z,8.93
2023-04-27T08:04:50.056Z,9.23
2023-04-27T08:07:21.703Z,8.27
2023-04-27T08:09:52.374Z,10.48
2023-04-27T08:12:20.661Z,9.00
2023-04-27T08:14:48.891Z,8.65
2023-04-27T08:17:18.850Z,10.52
2023-04-27T08:19:47.039Z,9.52
2023-04-27T08:22:15.520Z,9.88
2023-04-27T08:24:43.735Z,11.10
2023-04-27T08:27:12.759Z,10.68
2023-04-27T08:29:45.927Z,12.02
2023-04-27T08:32:14.135Z,12.15
2023-04-27T08:34:44.990Z,10.77
2023-04-27T08:37:13.281Z,10.77
2023-04-27T08:39:41.877Z,10.60
2023-04-27T08:42:13.368Z,10.85
2023-04-27T08:44:41.788Z,10.90
2023-04-27T08:47:10.433Z,11.05
2023-04-27T08:49:41.634Z,12.00
2023-04-27T08:52:15.396Z,13.65
2023-04-27T08:54:43.808Z,13.23
2023-04-27T08:57:13.416Z,12.50
2023-04-27T08:59:42.046Z,12.75
2023-04-27T09:02:21.061Z,11.95
2023-04-27T09:04:51.074Z,11.38
2023-04-27T09:07:20.876Z,11.73
2023-04-27T09:09:49.748Z,10.77
2023-04-27T09:12:20.840Z,12.63
2023-04-27T09:14:58.369Z,11.82
2023-04-27T09:17:28.099Z,11.50
2023-04-27T09:20:09.190Z,10.60
2023-04-27T09:22:49.127Z,11.40
2023-04-27T09:25:29.043Z,10.10
2023-04-27T09:27:58.322Z,12.00
2023-04-27T09:30:27.014Z,10.85
2023-04-27T09:32:57.334Z,11.23
2023-04-27T09:35:27.001Z,11.30
2023-04-27T09:38:00.119Z,12.32
2023-04-27T09:40:30.953Z,15.70
2023-04-27T09:43:01.913Z,12.85
2023-04-27T09:45:30.625Z,11.77
2023-04-27T09:48:00.056Z,12.05
2023-04-27T09:50:28.328Z,13.05
2023-04-27T09:52:58.243Z,12.75
2023-04-27T09:55:31.235Z,12.63
2023-04-27T09:58:10.819Z,12.52
2023-04-27T10:00:53.509Z,12.40
2023-04-27T10:03:29.363Z,11.23
2023-04-27T10:06:36.471Z,11.52
2023-04-27T10:09:06.827Z,11.85
2023-04-27T10:11:41.857Z,9.82
2023-04-27T10:14:11.346Z,10.55
2023-04-27T10:16:46.775Z,12.60
2023-04-27T10:19:15.904Z,10.48
2023-04-27T10:22:00.446Z,10.65
2023-04-27T10:24:40.955Z,11.43
2023-04-27T10:27:12.459Z,10.82
2023-04-27T10:29:42.236Z,12.65
2023-04-27T10:32:13.284Z,11.23
2023-04-27T10:34:42.722Z,10.35
2023-04-27T10:37:14.226Z,10.98
2023-04-27T10:42:29.506Z,12.05
2023-04-27T10:44:59.585Z,12.25
2023-04-27T10:47:39.417Z,13.07
2023-04-27T10:50:11.341Z,12.27
2023-04-27T10:52:42.452Z,12.35
2023-04-27T10:55:19.324Z,12.82
2023-04-27T10:57:49.433Z,13.23
2023-04-27T11:00:23.872Z,13.20
2023-04-27T11:02:52.740Z,12.85
2023-04-27T11:05:22.541Z,11.82
2023-04-27T11:07:50.970Z,11.68
2023-04-27T11:10:20.763Z,10.43
2023-04-27T11:12:48.996Z,9.77
2023-04-27T11:15:17.342Z,11.48
2023-04-27T11:17:45.868Z,10.68
2023-04-27T11:20:16.549Z,11.57
2023-04-27T11:22:48.420Z,12.30
2023-04-27T11:25:16.676Z,12.30
2023-04-27T11:27:46.208Z,11.38
2023-04-27T11:30:22.329Z,11.27
2023-04-27T11:32:51.786Z,11.52
2023-04-27T11:35:21.937Z,11.55
2023-04-27T11:37:59.658Z,12.07
2023-04-27T11:40:29.212Z,11.40
2023-04-27T11:43:04.226Z,13.68
2023-04-27T11:45:32.366Z,12.02
2023-04-27T11:48:01.016Z,12.55
2023-04-27T11:50:29.329Z,11.10
2023-04-27T11:53:02.354Z,10.50
2023-04-27T11:55:31.386Z,10.98
2023-04-27T11:58:00.219Z,11.32
2023-04-27T12:00:29.791Z,11.27
2023-04-27T12:02:59.524Z,12.70
2023-04-27T12:05:28.016Z,14.48
2023-04-27T12:07:56.672Z,13.68
2023-04-27T12:10:25.640Z,14.57
2023-04-27T12:12:53.849Z,14.27
2023-04-27T12:15:21.932Z,13.43
2023-04-27T12:17:51.577Z,15.32
2023-04-27T12:20:19.804Z,14.90
2023-04-27T12:22:48.478Z,14.13
2023-04-27T12:25:17.636Z,14.10
2023-04-27T12:27:47.875Z,13.43
2023-04-27T12:30:16.626Z,13.20
2023-04-27T12:32:45.018Z,16.02
2023-04-27T12:35:14.576Z,13.82
2023-04-27T12:37:42.969Z,14.68
2023-04-27T12:40:12.659Z,16.23
2023-04-27T12:42:43.091Z,16.27
2023-04-27T12:45:12.003Z,17.02
2023-04-27T12:47:58.280Z,17.92
2023-04-27T12:50:30.033Z,17.98
2023-04-27T12:52:58.195Z,17.85
2023-04-27T12:55:33.880Z,18.20
2023-04-27T12:58:05.090Z,20.40
2023-04-27T13:00:34.318Z,18.20
2023-04-27T13:03:02.748Z,18.13
2023-04-27T13:05:32.559Z,18.98
2023-04-27T13:08:00.786Z,16.23
2023-04-27T13:10:29.893Z,16.02
2023-04-27T13:12:59.010Z,15.52
2023-04-27T13:15:27.266Z,15.57
2023-04-27T13:17:56.859Z,15.30
2023-04-27T13:20:25.214Z,14.57
2023-04-27T13:22:54.873Z,15.60
2023-04-27T13:25:24.057Z,15.85
2023-04-27T13:27:58.012Z,16.35
2023-04-27T13:30:26.330Z,16.52
2023-04-27T13:32:54.704Z,14.38
2023-04-27T13:35:23.986Z,15.32
2023-04-27T13:37:54.497Z,16.33
2023-04-27T13:40:26.080Z,16.35
2023-04-27T13:42:54.266Z,16.88
2023-04-27T13:45:27.038Z,16.15
2023-04-27T13:47:55.296Z,20.02
2023-04-27T13:50:23.563Z,16.80
2023-04-27T13:52:51.828Z,17.98
2023-04-27T13:55:21.289Z,18.10
2023-04-27T13:57:49.857Z,17.95
2023-04-27T14:00:18.584Z,16.20
2023-04-27T14:02:46.851Z,17.67
2023-04-27T14:05:15.259Z,17.52
2023-04-27T14:07:43.426Z,17.65
2023-04-27T14:10:12.189Z,17.20
2023-04-27T14:12:41.875Z,16.83
2023-04-27T14:15:10.938Z,15.88
2023-04-27T14:17:39.301Z,18.15
2023-04-27T14:20:08.852Z,15.52
2023-04-27T14:22:37.677Z,16.50
2023-04-27T14:25:06.588Z,16.55
2023-04-27T14:27:34.723Z,15.52
2023-04-27T14:30:04.756Z,16.38
2023-04-27T14:32:36.437Z,15.90
2023-04-27T14:35:05.055Z,16.65
2023-04-27T14:37:33.492Z,15.32
2023-04-27T14:40:03.262Z,17.10
2023-04-27T14:42:31.888Z,15.57
2023-04-27T14:45:00.051Z,16.65
2023-04-27T14:47:29.695Z,17.90
2023-04-27T14:49:57.914Z,16.55
2023-04-27T14:52:26.284Z,15.77
2023-04-27T14:54:55.762Z,15.15
2023-04-27T14:57:24.045Z,15.85
2023-04-27T14:59:52.273Z,15.13
2023-04-27T15:02:20.594Z,16.40
2023-04-27T15:04:50.376Z,14.70
2023-04-27T15:07:20.304Z,14.40
2023-04-27T15:09:48.565Z,16.33
2023-04-27T15:12:16.720Z,14.35
2023-04-27T15:14:44.824Z,14.60
2023-04-27T15:17:14.358Z,14.98
2023-04-27T15:19:42.590Z,15.90
2023-04-27T15:22:14.724Z,14.75
2023-04-27T15:24:42.981Z,13.75
2023-04-27T15:27:11.263Z,14.48
2023-04-27T15:29:39.447Z,15.85
2023-04-27T15:32:07.752Z,15.48
2023-04-27T15:34:36.094Z,15.95
2023-04-27T15:37:04.276Z,17.30
2023-04-27T15:39:33.854Z,17.17
2023-04-27T15:42:03.192Z,16.08
2023-04-27T15:44:31.335Z,15.63
2023-04-27T15:46:59.734Z,15.55
2023-04-27T15:49:28.627Z,14.68
2023-04-27T15:51:56.837Z,17.38
2023-04-27T15:54:25.447Z,16.13
2023-04-27T15:56:55.069Z,16.42
2023-04-27T15:59:25.154Z,15.70
2023-04-27T16:01:53.448Z,15.63
2023-04-27T16:04:22.413Z,14.70
2023-04-27T16:06:52.997Z,13.80
2023-04-27T16:09:21.384Z,14.25
2023-04-27T16:11:49.547Z,14.35
2023-04-27T16:14:19.067Z,13.85
2023-04-27T16:16:47.436Z,13.05
2023-04-27T16:19:16.185Z,13.93
2023-04-27T16:21:45.166Z,12.68
2023-04-27T16:24:13.633Z,12.10
2023-04-27T16:26:41.803Z,12.35
2023-04-27T16:29:10.023Z,12.63
2023-04-27T16:31:39.788Z,13.82
2023-04-27T16:34:07.947Z,14.48
2023-04-27T16:36:36.059Z,14.13
2023-04-27T16:39:05.284Z,13.40
2023-04-27T16:41:33.502Z,13.65
2023-04-27T16:44:01.737Z,13.40
2023-04-27T16:46:30.243Z,13.15
2023-04-27T16:49:00.290Z,13.80
2023-04-27T16:51:29.051Z,13.35
2023-04-27T16:53:57.274Z,13.38
2023-04-27T16:56:29.495Z,12.55
2023-04-27T16:58:58.054Z,12.63
2023-04-27T17:01:29.937Z,12.88
2023-04-27T17:04:01.234Z,12.63
2023-04-27T17:06:30.034Z,12.48
2023-04-27T17:08:59.009Z,13.27
2023-04-27T17:11:27.273Z,12.60
2023-04-27T17:13:56.096Z,13.55
2023-04-27T17:16:24.306Z,11.25
2023-04-27T17:18:52.734Z,12.80
2023-04-27T17:21:24.996Z,11.90
2023-04-27T17:23:53.358Z,13.85
2023-04-27T17:26:22.057Z,13.70
2023-04-27T17:28:50.934Z,15.00
2023-04-27T17:31:19.231Z,15.93
2023-04-27T17:33:47.501Z,14.60
2023-04-27T17:36:15.882Z,14.15
2023-04-27T17:38:46.576Z,14.93
2023-04-27T17:41:14.800Z,15.20
2023-04-27T17:43:43.067Z,16.17
2023-04-27T17:46:11.357Z,14.95
2023-04-27T17:48:39.841Z,14.77
2023-04-27T17:51:08.718Z,17.02
2023-04-27T17:53:39.763Z,14.52
2023-04-27T17:56:09.459Z,15.43
2023-04-27T17:58:37.820Z,14.52
2023-04-27T18:01:09.177Z,15.98
2023-04-27T18:03:37.962Z,15.45
2023-04-27T18:06:06.607Z,16.70
2023-04-27T18:08:34.812Z,16.02
2023-04-27T18:11:02.988Z,18.45
2023-04-27T18:13:33.076Z,16.77
2023-04-27T18:16:01.378Z,17.90
2023-04-27T18:18:30.008Z,15.40
2023-04-27T18:20:59.521Z,15.70
2023-04-27T18:23:27.833Z,15.23
2023-04-27T18:26:00.056Z,15.20
2023-04-27T18:28:28.345Z,15.10
2023-04-27T18:30:57.924Z,14.77
2023-04-27T18:33:26.100Z,15.45
2023-04-27T18:35:54.211Z,15.80
2023-04-27T18:38:22.359Z,15.30
2023-04-27T18:40:50.451Z,15.70
2023-04-27T18:43:18.760Z,14.90
2023-04-27T18:45:46.972Z,14.93
2023-04-27T18:48:16.534Z,15.40
2023-04-27T18:50:44.842Z,15.38
2023-04-27T18:53:12.997Z,15.50
2023-04-27T18:55:41.229Z,15.82
2023-04-27T18:58:09.373Z,15.25
2023-04-27T19:00:39.429Z,14.85
2023-04-27T19:03:07.849Z,15.65
2023-04-27T19:05:37.812Z,15.52
2023-04-27T19:08:06.171Z,17.42
2023-04-27T19:10:34.487Z,15.65
2023-04-27T19:13:02.991Z,16.48
2023-04-27T19:15:31.199Z,14.95
2023-04-27T19:18:07.054Z,17.38
2023-04-27T19:20:40.235Z,15.60
2023-04-27T19:23:09.664Z,17.00
2023-04-27T19:25:37.907Z,16.60
2023-04-27T19:28:07.136Z,17.50
2023-04-27T19:30:35.579Z,16.65
2023-04-27T19:33:04.291Z,15.65
2023-04-27T19:35:32.584Z,16.60
2023-04-27T19:38:02.356Z,16.50
2023-04-27T19:40:30.660Z,17.13
2023-04-27T19:42:59.031Z,16.77
2023-04-27T19:45:27.305Z,17.70
2023-04-27T19:47:55.645Z,17.60
2023-04-27T19:50:24.273Z,17.85
2023-04-27T19:52:52.697Z,20.17
2023-04-27T19:55:22.471Z,19.15
2023-04-27T19:57:52.266Z,18.27
2023-04-27T20:00:20.634Z,18.27
2023-04-27T20:02:49.791Z,18.70
2023-04-27T20:05:18.234Z,18.38
2023-04-27T20:07:47.044Z,21.60
2023-04-27T20:10:15.314Z,17.63
2023-04-27T20:12:56.182Z,18.73
2023-04-27T20:15:25.037Z,19.80
2023-04-27T20:17:53.473Z,19.58
2023-04-27T20:20:22.010Z,21.13
2023-04-27T20:22:50.297Z,21.48
2023-04-27T20:25:19.761Z,19.33
2023-04-27T20:27:49.410Z,21.20
2023-04-27T20:30:17.526Z,21.52
2023-04-27T20:32:46.675Z,21.17
2023-04-27T20:35:15.417Z,22.63
2023-04-27T20:37:44.650Z,22.98
2023-04-27T20:40:17.734Z,23.23
2023-04-27T20:42:49.709Z,23.80
2023-04-27T20:45:18.988Z,21.23
2023-04-27T20:47:47.274Z,20.90
2023-04-27T20:50:15.637Z,22.55
2023-04-27T20:52:44.864Z,23.10
2023-04-27T20:55:13.150Z,23.67
2023-04-27T20:57:41.441Z,22.90
2023-04-27T21:00:13.034Z,23.90
2023-04-27T21:05:09.558Z,22.92
2023-04-27T21:07:37.916Z,21.63
2023-04-27T21:10:07.240Z,23.33
2023-04-27T21:12:35.672Z,23.10
2023-04-27T21:15:04.145Z,23.27
2023-04-27T21:17:33.638Z,22.63
2023-04-27T21:20:01.911Z,22.85
2023-04-27T21:22:30.102Z,22.95
2023-04-27T21:24:58.232Z,22.00
2023-04-27T21:27:26.321Z,23.73
2023-04-27T21:29:54.555Z,23.02
2023-04-27T21:32:22.871Z,21.52
2023-04-27T21:34:52.688Z,22.45
2023-04-27T21:37:21.652Z,22.10
2023-04-27T21:39:49.910Z,23.88
2023-04-27T21:42:18.162Z,23.45
2023-04-27T21:44:47.081Z,24.85
2023-04-27T21:47:16.239Z,25.27
2023-04-27T21:49:44.430Z,24.70
2023-04-27T21:52:14.336Z,24.73
2023-04-27T21:54:42.573Z,24.55
2023-04-27T21:57:10.963Z,25.70
2023-04-27T21:59:39.123Z,24.73
2023-04-27T22:02:07.560Z,25.55
2023-04-27T22:04:38.466Z,25.25
2023-04-27T22:07:08.003Z,23.27
2023-04-27T22:09:38.100Z,24.10
2023-04-27T22:12:06.713Z,24.13
2023-04-27T22:14:35.018Z,26.17
2023-04-27T22:17:03.138Z,24.70
2023-04-27T22:22:03.563Z,24.83
2023-04-27T22:24:31.736Z,25.40
2023-04-27T22:27:02.063Z,24.60
2023-04-27T22:29:30.274Z,25.35
2023-04-27T22:31:58.801Z,25.80
2023-04-27T22:34:27.560Z,26.48
2023-04-27T22:36:55.738Z,26.15
2023-04-27T22:39:24.758Z,28.25
2023-04-27T22:41:53.001Z,27.02
2023-04-27T22:44:22.681Z,27.55
2023-04-27T22:46:51.010Z,28.30
2023-04-27T22:49:19.178Z,28.13
2023-04-27T22:51:47.904Z,26.60
2023-04-27T22:54:16.347Z,27.58
2023-04-27T22:56:44.704Z,26.50
2023-04-27T22:59:13.502Z,25.45
2023-04-27T23:01:43.152Z,26.13
2023-04-27T23:04:11.673Z,26.20
2023-04-27T23:06:40.017Z,26.08
2023-04-27T23:09:08.227Z,26.17
2023-04-27T23:11:36.854Z,25.70
2023-04-27T23:14:05.047Z,26.08
2023-04-27T23:16:33.313Z,23.50
2023-04-27T23:19:02.940Z,23.10
2023-04-27T23:21:31.994Z,24.60
2023-04-27T23:24:00.296Z,24.92
2023-04-27T23:26:28.552Z,20.40
2023-04-27T23:28:57.597Z,21.02
2023-04-27T23:31:25.802Z,20.90
2023-04-27T23:33:54.102Z,21.40
2023-04-27T23:36:23.614Z,21.73
2023-04-27T23:38:52.326Z,19.45
2023-04-27T23:41:21.406Z,19.80
2023-04-27T23:43:49.554Z,20.08
2023-04-27T23:46:17.808Z,21.08
2023-04-27T23:48:46.321Z,19.98
2023-04-27T23:51:14.454Z,19.10
2023-04-27T23:53:44.172Z,21.30
2023-04-27T23:56:18.017Z,22.45
2023-04-27T23:58:46.305Z,21.20
